Time;durP1;ratioP1;P1;durP2;ratioP2;P2;SDS_P1;SDS_P2;PMS_P1;PMS_P2;Temp;Humidity;BMP_temperature;BMP_pressure;BME280_temperature;BME280_humidity;BME280_pressure;Samples;Min_cycle;Max_cycle;Signal;HPM_P1;HPM_P2
2022/05/13 00:00:58;;;;;;;12.07;3.25;;;;;;;-144.47;46.14;53201.69;5035668;28;20037;-67
2022/05/13 00:03:23;;;;;;;7.03;3.25;;;;;;;-144.47;46.15;53173.88;5028108;28;20041;-68
2022/05/13 00:05:52;;;;;;;8.88;3.08;;;;;;;-144.47;46.17;53201.69;5027593;28;20075;-69
2022/05/13 00:08:18;;;;;;;13.15;3.25;;;;;;;-144.47;46.37;53233.47;5027840;28;20101;-69
2022/05/13 00:10:44;;;;;;;8.20;3.20;;;;;;;-144.47;46.65;53213.63;5028073;28;20108;-67
2022/05/13 00:13:09;;;;;;;11.77;3.50;;;;;;;-144.47;46.85;53189.78;5027955;28;20025;-67
2022/05/13 00:15:35;;;;;;;7.38;3.00;;;;;;;-144.47;47.09;53229.50;5028131;28;20597;-67
2022/05/13 00:18:01;;;;;;;11.30;3.05;;;;;;;-144.47;47.41;53205.66;5027362;28;20030;-69
2022/05/13 00:20:27;;;;;;;8.77;3.67;;;;;;;-144.47;47.62;53199.72;5032940;28;20025;-68
2022/05/13 00:22:55;;;;;;;6.45;3.30;;;;;;;-144.47;47.87;53217.59;5044842;28;20029;-65
2022/05/13 00:25:24;;;;;;;6.47;3.07;;;;;;;-144.47;47.83;53158.00;5033481;28;20026;-69
2022/05/13 00:27:50;;;;;;;8.23;3.85;;;;;;;-144.47;48.19;53195.75;5027712;28;20270;-69
2022/05/13 00:30:16;;;;;;;8.38;3.67;;;;;;;-144.47;48.41;53167.94;5029538;28;20057;-68
2022/05/13 00:32:44;;;;;;;6.40;3.47;;;;;;;-144.47;48.49;53233.47;5032430;28;20033;-69
2022/05/13 00:35:10;;;;;;;13.93;3.42;;;;;;;-144.47;48.75;53171.91;5027655;28;20014;-70
2022/05/13 00:37:35;;;;;;;7.60;2.97;;;;;;;-144.47;48.92;53219.56;5027571;28;20033;-66
2022/05/13 00:40:02;;;;;;;12.70;4.40;;;;;;;-144.47;49.00;53195.75;5025603;28;20357;-70
2022/05/13 00:42:28;;;;;;;9.80;3.75;;;;;;;-144.47;49.32;53229.50;5026316;28;20029;-70
2022/05/13 00:44:53;;;;;;;9.93;2.88;;;;;;;-144.47;49.13;53223.56;5027230;28;20037;-66
2022/05/13 00:47:19;;;;;;;11.45;4.03;;;;;;;-144.47;49.48;53177.88;5020338;28;20108;-69
2022/05/13 00:49:44;;;;;;;7.63;2.58;;;;;;;-144.47;49.77;53187.78;5026680;28;20527;-68
2022/05/13 00:52:11;;;;;;;9.77;3.03;;;;;;;-144.47;49.67;53215.59;5027921;28;20033;-69
2022/05/13 00:54:39;;;;;;;9.73;3.35;;;;;;;-144.47;49.71;53261.28;5026995;28;20037;-68
2022/05/13 00:57:05;;;;;;;9.80;3.70;;;;;;;-144.47;49.74;53225.53;5027760;28;20025;-69
2022/05/13 00:59:34;;;;;;;12.55;3.92;;;;;;;-144.47;49.84;53201.69;5027075;28;20259;-69
2022/05/13 01:01:59;;;;;;;13.45;4.38;;;;;;;-144.47;50.30;53205.66;5025876;28;20057;-70
2022/05/13 01:04:26;;;;;;;10.95;3.90;;;;;;;-144.47;50.38;53231.50;5027090;28;20049;-68
2022/05/13 01:06:54;;;;;;;12.70;4.03;;;;;;;-144.47;50.55;53225.53;5026843;28;20040;-69
2022/05/13 01:09:21;;;;;;;9.40;4.07;;;;;;;-144.47;50.60;53227.53;5027278;28;20061;-69
2022/05/13 01:11:52;;;;;;;10.25;4.00;;;;;;;-144.47;50.79;53233.47;5027252;28;20066;-68
2022/05/13 01:14:24;;;;;;;13.93;3.42;;;;;;;-144.47;50.78;53247.38;5025557;28;20124;-66
2022/05/13 01:19:33;;;;;;;8.80;2.70;;;;;;;-144.47;50.15;53221.56;5026608;28;20060;-69
2022/05/13 01:22:12;;;;;;;10.55;3.05;;;;;;;-144.47;50.28;53231.50;5032607;28;20123;-67
2022/05/13 01:24:37;;;;;;;9.57;3.00;;;;;;;-144.47;50.48;53213.63;5022811;28;20040;-70
2022/05/13 01:27:02;;;;;;;7.47;3.20;;;;;;;-144.47;50.69;53215.59;5028235;28;20030;-68
2022/05/13 01:29:28;;;;;;;6.90;3.42;;;;;;;-144.47;51.01;53217.59;5029192;28;20025;-70
2022/05/13 01:31:53;;;;;;;9.05;3.78;;;;;;;-144.47;51.44;53229.50;5038718;28;20029;-68
2022/05/13 01:34:19;;;;;;;8.52;3.50;;;;;;;-144.47;51.59;53221.56;5031572;28;20127;-66
2022/05/13 01:36:44;;;;;;;15.15;3.60;;;;;;;-144.47;51.66;53217.59;5031664;28;20025;-68
2022/05/13 01:39:10;;;;;;;8.55;3.28;;;;;;;-144.47;51.77;53229.50;5030671;28;20029;-69
2022/05/13 01:41:35;;;;;;;7.18;3.45;;;;;;;-144.47;52.00;53209.66;5031583;28;20029;-69
2022/05/13 01:44:01;;;;;;;9.93;3.42;;;;;;;-144.47;52.43;53217.59;5031333;28;20099;-67
2022/05/13 01:46:26;;;;;;;10.75;4.20;;;;;;;-144.47;52.81;53227.53;5031880;28;20036;-69
2022/05/13 01:48:53;;;;;;;13.98;4.03;;;;;;;-144.47;52.74;53225.53;5029300;28;20017;-67
2022/05/13 01:51:19;;;;;;;8.77;3.70;;;;;;;-144.47;52.81;53241.44;5029637;28;20500;-66
2022/05/13 01:53:45;;;;;;;10.73;3.78;;;;;;;-144.47;52.97;53229.50;5029670;28;20030;-70
2022/05/13 01:56:10;;;;;;;7.57;3.47;;;;;;;-144.47;52.99;53241.44;5031515;28;20383;-68
2022/05/13 01:58:36;;;;;;;10.50;3.55;;;;;;;-144.47;53.02;53227.53;5022417;28;20460;-68
2022/05/13 02:01:05;;;;;;;8.68;3.22;;;;;;;-144.47;53.13;53197.72;5030800;28;20031;-67
2022/05/13 02:03:45;;;;;;;8.45;3.58;;;;;;;-144.47;53.20;53205.66;5031147;28;20029;-68
2022/05/13 02:06:22;;;;;;;10.15;3.67;;;;;;;-144.47;53.18;53239.44;5030998;28;20053;-67
2022/05/13 02:08:50;;;;;;;8.98;3.22;;;;;;;-144.47;53.29;53229.50;5029030;28;20029;-68
2022/05/13 02:11:17;;;;;;;9.10;3.75;;;;;;;-144.47;53.46;53225.53;5031474;28;20022;-67
2022/05/13 02:13:43;;;;;;;7.97;3.78;;;;;;;-144.47;53.24;53241.44;5028629;28;20041;-67
2022/05/13 02:16:10;;;;;;;11.98;5.03;;;;;;;-144.47;53.36;53213.63;5031284;28;20079;-68
2022/05/13 02:18:36;;;;;;;7.82;4.00;;;;;;;-144.47;53.26;53235.47;5030168;28;20088;-66
2022/05/13 02:21:01;;;;;;;15.40;5.32;;;;;;;-144.47;53.37;53221.56;5029503;28;20021;-68
2022/05/13 02:23:27;;;;;;;11.80;3.78;;;;;;;-144.47;53.90;53267.25;5029537;28;20097;-69
2022/05/13 02:26:03;;;;;;;21.13;4.82;;;;;;;-144.47;53.85;53225.53;5030177;28;20025;-67
2022/05/13 02:28:30;;;;;;;10.30;4.30;;;;;;;-144.47;53.66;53219.56;5016940;28;20083;-65
2022/05/13 02:30:55;;;;;;;11.32;4.07;;;;;;;-144.47;53.92;53225.53;5035207;28;20170;-65
2022/05/13 02:33:21;;;;;;;9.65;4.00;;;;;;;-144.47;53.98;53241.44;5029804;28;20119;-68
2022/05/13 02:35:47;;;;;;;12.05;3.90;;;;;;;-144.47;54.16;53239.44;5029900;28;20052;-66
2022/05/13 02:38:14;;;;;;;12.32;4.13;;;;;;;-144.47;54.38;53183.81;5029207;28;20072;-68
2022/05/13 02:43:24;;;;;;;15.50;4.72;;;;;;;-144.47;53.93;53193.75;5030370;28;20087;-68
2022/05/13 02:45:49;;;;;;;10.18;4.63;;;;;;;-144.47;53.94;53223.56;5029472;28;20049;-66
2022/05/13 02:48:15;;;;;;;12.93;4.90;;;;;;;-144.47;53.90;53225.53;5025802;28;20028;-66
2022/05/13 02:50:40;;;;;;;12.35;5.00;;;;;;;-144.47;53.96;53233.47;5037616;28;20021;-69
2022/05/13 02:53:06;;;;;;;12.85;5.32;;;;;;;-144.47;54.03;53231.50;5030145;28;20488;-66
2022/05/13 02:55:31;;;;;;;17.30;5.30;;;;;;;-144.47;53.79;53243.41;5029750;28;20446;-68
2022/05/13 02:57:56;;;;;;;12.35;4.50;;;;;;;-144.47;53.88;53231.50;5027607;28;20269;-67
2022/05/13 03:00:22;;;;;;;10.90;5.63;;;;;;;-144.47;53.96;53207.66;5027720;28;20164;-67
2022/05/13 03:02:47;;;;;;;13.50;5.18;;;;;;;-144.47;53.99;53213.63;5029212;28;20025;-67
2022/05/13 03:05:12;;;;;;;13.32;4.35;;;;;;;-144.47;54.47;53201.69;5028691;28;20060;-68
2022/05/13 03:07:38;;;;;;;14.23;5.32;;;;;;;-144.47;55.30;53227.53;5029082;28;20056;-67
2022/05/13 03:10:05;;;;;;;11.60;5.82;;;;;;;-144.47;55.79;53261.28;5028986;28;20100;-68
2022/05/13 03:12:30;;;;;;;12.32;6.38;;;;;;;-144.47;55.95;53213.63;5029469;28;20025;-66
2022/05/13 03:14:56;;;;;;;11.75;5.25;;;;;;;-144.47;55.75;53217.59;5028787;28;20041;-68
2022/05/13 03:17:21;;;;;;;11.48;5.00;;;;;;;-144.47;55.35;53263.28;5028303;28;20440;-69
2022/05/13 03:19:46;;;;;;;10.77;4.80;;;;;;;-144.47;55.03;53229.50;5019551;28;20052;-67
2022/05/13 03:22:12;;;;;;;16.58;5.18;;;;;;;-144.47;54.76;53261.28;5028394;28;20025;-69
2022/05/13 03:24:37;;;;;;;9.57;4.85;;;;;;;-144.47;54.24;53209.66;5031821;28;20033;-69
2022/05/13 03:27:04;;;;;;;10.82;4.78;;;;;;;-144.47;53.96;53247.38;5028327;28;20215;-67
2022/05/13 03:29:30;;;;;;;15.65;4.97;;;;;;;-144.47;54.12;53237.44;5027965;28;20061;-69
2022/05/13 03:31:56;;;;;;;10.32;4.57;;;;;;;-144.47;54.02;53267.25;5036297;28;20060;-67
2022/05/13 03:34:21;;;;;;;11.07;4.53;;;;;;;-144.47;54.10;53245.41;5026565;28;20044;-68
2022/05/13 03:36:49;;;;;;;9.63;4.38;;;;;;;-144.47;54.42;53201.69;5030900;28;20088;-65
2022/05/13 03:39:14;;;;;;;10.80;5.10;;;;;;;-144.47;54.65;53253.34;5029883;28;20091;-65
2022/05/13 03:41:40;;;;;;;18.27;5.47;;;;;;;-144.47;54.88;53237.44;5029553;28;20021;-68
2022/05/13 03:44:05;;;;;;;13.63;4.43;;;;;;;-144.47;54.94;53233.47;5028924;28;20048;-68
2022/05/13 03:46:30;;;;;;;13.15;5.30;;;;;;;-144.47;55.32;53239.44;5028342;28;20056;-68
2022/05/13 03:48:56;;;;;;;9.32;4.10;;;;;;;-144.47;55.50;53259.31;5026879;28;20083;-67
2022/05/13 03:51:22;;;;;;;11.50;5.00;;;;;;;-144.47;55.32;53209.66;5016324;28;20080;-68
2022/05/13 03:53:47;;;;;;;8.32;4.55;;;;;;;-144.47;55.40;53233.47;5028800;28;20037;-69
2022/05/13 03:56:12;;;;;;;16.10;4.72;;;;;;;-144.47;55.36;53239.44;5029309;28;20040;-68
2022/05/13 03:58:39;;;;;;;9.55;4.40;;;;;;;-144.47;55.21;53253.34;5021709;28;20017;-67
2022/05/13 04:01:04;;;;;;;11.40;4.28;;;;;;;-144.47;55.40;53253.34;5029322;28;20028;-66
2022/05/13 04:03:30;;;;;;;15.48;5.45;;;;;;;-144.47;55.09;53241.44;5027717;28;20029;-70
2022/05/13 04:08:57;;;;;;;12.95;4.70;;;;;;;-144.47;55.27;53237.44;5028856;28;20075;-67
2022/05/13 04:11:28;;;;;;;22.85;5.15;;;;;;;-144.47;55.32;53233.47;5029933;28;20028;-69
2022/05/13 04:16:37;;;;;;;13.05;4.72;;;;;;;-144.47;55.17;53205.66;5033901;28;20120;-69
2022/05/13 04:19:04;;;;;;;7.95;4.03;;;;;;;-144.47;55.03;53275.19;5028110;28;20041;-68
2022/05/13 04:21:32;;;;;;;15.85;4.40;;;;;;;-144.47;55.02;53199.72;5036215;28;20021;-68
2022/05/13 04:24:00;;;;;;;15.63;5.13;;;;;;;-144.47;55.08;53219.56;5027178;28;20405;-67
2022/05/13 04:26:26;;;;;;;8.38;4.47;;;;;;;-144.47;55.26;53279.16;5027715;28;20454;-67
2022/05/13 04:28:53;;;;;;;9.13;4.45;;;;;;;-144.47;55.43;53237.44;5028627;28;20057;-66
2022/05/13 04:31:24;;;;;;;10.40;4.90;;;;;;;-144.47;55.34;53247.38;5035224;28;20106;-67
2022/05/13 04:33:51;;;;;;;14.40;4.47;;;;;;;-144.47;54.99;53257.31;5029271;28;20053;-67
2022/05/13 04:36:17;;;;;;;10.77;5.47;;;;;;;-144.47;55.21;53205.66;5031758;28;20112;-64
2022/05/13 04:38:44;;;;;;;15.60;4.90;;;;;;;-144.47;55.08;53253.34;5031157;28;20127;-66
2022/05/13 04:43:55;;;;;;;14.10;5.13;;;;;;;-144.47;55.25;53217.59;5026135;28;20040;-66
2022/05/13 04:46:20;;;;;;;15.13;5.50;;;;;;;-144.47;54.79;53227.53;5022038;28;20021;-68
2022/05/13 04:48:49;;;;;;;13.13;4.88;;;;;;;-144.47;54.80;53267.25;5025222;28;20029;-66
2022/05/13 04:51:18;;;;;;;19.90;4.85;;;;;;;-144.47;54.69;53257.31;5032082;28;20032;-65
2022/05/13 04:53:45;;;;;;;19.63;4.63;;;;;;;-144.47;54.45;53239.44;5028186;28;20041;-69
2022/05/13 04:56:10;;;;;;;12.45;4.70;;;;;;;-144.47;54.16;53223.56;5023231;28;20120;-66
2022/05/13 04:58:42;;;;;;;11.43;4.78;;;;;;;-144.47;53.94;53225.53;5026425;28;20112;-65
2022/05/13 05:01:09;;;;;;;12.43;4.60;;;;;;;-144.47;53.93;53215.59;5025550;28;20137;-67
2022/05/13 05:03:36;;;;;;;12.65;4.75;;;;;;;-144.47;53.86;53257.31;5023666;28;20040;-67
2022/05/13 05:06:03;;;;;;;12.20;4.75;;;;;;;-144.47;53.74;53239.44;5027638;28;20041;-67
2022/05/13 05:08:29;;;;;;;8.95;4.35;;;;;;;-144.47;53.68;53253.34;5040039;28;20029;-64
2022/05/13 05:10:55;;;;;;;13.68;4.43;;;;;;;-144.47;54.82;53197.72;5031142;28;20033;-66
2022/05/13 05:13:24;;;;;;;14.50;5.35;;;;;;;-144.47;53.72;53269.22;5029958;28;20021;-67
2022/05/13 05:15:50;;;;;;;11.30;4.47;;;;;;;-144.47;52.31;53237.44;5057015;23;20314;-65
2022/05/13 05:18:16;;;;;;;6.75;3.55;;;;;;;-144.47;52.11;53229.50;5025425;28;20064;-65
2022/05/13 05:20:43;;;;;;;18.33;4.07;;;;;;;-144.47;51.84;53265.25;5029961;28;20013;-66
2022/05/13 05:23:17;;;;;;;9.40;4.47;;;;;;;-144.47;51.67;53231.50;5032343;28;20026;-62
2022/05/13 05:25:44;;;;;;;10.40;3.83;;;;;;;-144.47;51.73;53223.56;5032800;28;20026;-65
2022/05/13 05:28:10;;;;;;;7.75;4.00;;;;;;;-144.47;51.87;53229.50;5032140;28;20041;-63
2022/05/13 05:30:35;;;;;;;13.05;3.95;;;;;;;-144.47;52.09;53227.53;5032691;28;20053;-63
2022/05/13 05:33:00;;;;;;;12.95;5.10;;;;;;;-144.47;52.15;53213.63;5031929;28;20634;-64
2022/05/13 05:35:26;;;;;;;9.65;3.88;;;;;;;-144.47;52.13;53203.69;5031993;28;20552;-66
2022/05/13 05:37:52;;;;;;;12.52;3.85;;;;;;;-144.47;52.12;53217.59;5031996;28;20055;-60
2022/05/13 05:40:17;;;;;;;10.88;3.88;;;;;;;-144.47;52.34;53237.44;5031714;28;20045;-61
2022/05/13 05:42:43;;;;;;;17.50;4.20;;;;;;;-144.47;52.26;53197.72;5032385;28;20688;-63
2022/05/13 05:45:11;;;;;;;18.25;6.25;;;;;;;-144.47;52.19;53197.72;5031610;28;20029;-63
2022/05/13 05:47:37;;;;;;;10.43;3.40;;;;;;;-144.47;52.16;53265.25;5032228;28;20033;-60
2022/05/13 05:50:06;;;;;;;10.02;3.20;;;;;;;-144.47;52.06;53237.44;5031857;28;20120;-66
2022/05/13 05:52:31;;;;;;;12.32;3.75;;;;;;;-144.47;52.01;53233.47;5032093;28;20032;-66
2022/05/13 05:57:54;;;;;;;7.93;3.25;;;;;;;-144.47;49.98;53215.59;5026852;28;20415;-64
2022/05/13 06:00:19;;;;;;;10.38;3.65;;;;;;;-144.47;50.28;53213.63;5030216;28;20077;-62
2022/05/13 06:02:45;;;;;;;13.13;3.35;;;;;;;-144.47;48.64;53217.59;5031112;28;20021;-66
2022/05/13 06:05:10;;;;;;;8.93;2.72;;;;;;;-144.47;48.51;53173.88;5031606;28;20029;-64
2022/05/13 06:07:35;;;;;;;10.15;3.50;;;;;;;-144.47;48.09;53239.44;5032228;28;20017;-65
2022/05/13 06:10:00;;;;;;;6.63;2.78;;;;;;;-144.47;48.26;53185.81;5040713;28;20028;-61
2022/05/13 06:12:26;;;;;;;8.50;2.95;;;;;;;-144.47;48.29;53179.84;5031831;28;20104;-64
2022/05/13 06:14:52;;;;;;;8.52;3.30;;;;;;;-144.47;48.46;53185.81;5030194;28;20025;-63
2022/05/13 06:17:18;;;;;;;9.05;3.42;;;;;;;-144.47;48.24;53221.56;5029043;28;20045;-64
2022/05/13 06:19:43;;;;;;;10.77;3.50;;;;;;;-144.47;48.42;53193.75;5030734;28;20025;-65
2022/05/13 06:22:08;;;;;;;9.77;4.95;;;;;;;-144.47;48.81;53185.81;5031586;28;20564;-66
2022/05/13 06:24:33;;;;;;;8.73;3.40;;;;;;;-144.47;49.21;53197.72;5025319;28;20040;-68
2022/05/13 06:26:59;;;;;;;10.52;3.85;;;;;;;-144.47;49.28;53195.75;5026363;28;20033;-61
2022/05/13 06:29:25;;;;;;;6.70;3.70;;;;;;;-144.47;49.17;53185.81;5033761;28;20543;-64
2022/05/13 06:31:50;;;;;;;15.50;3.83;;;;;;;-144.47;49.28;53215.59;5031193;28;20033;-64
2022/05/13 06:34:17;;;;;;;14.20;3.95;;;;;;;-144.47;48.81;53187.78;5026523;28;20036;-65
2022/05/13 06:36:42;;;;;;;9.02;4.78;;;;;;;-144.47;48.81;53201.69;5029283;28;20025;-66
2022/05/13 06:39:08;;;;;;;14.43;4.05;;;;;;;-144.47;48.54;53191.78;5025460;28;20630;-66
2022/05/13 06:41:37;;;;;;;17.35;3.90;;;;;;;-144.47;48.55;53187.78;5028134;28;20029;-63
2022/05/13 06:44:06;;;;;;;12.77;3.78;;;;;;;-144.47;47.19;53199.72;5023336;28;20079;-64
2022/05/13 06:46:57;;;;;;;14.43;4.50;;;;;;;-144.47;46.87;53211.63;5025606;28;20105;-67
2022/05/13 06:49:22;;;;;;;17.23;4.18;;;;;;;-144.47;46.95;53160.00;5033661;28;20021;-64
2022/05/13 06:51:47;;;;;;;10.45;4.30;;;;;;;-144.47;46.62;53173.88;5028777;28;20070;-65
2022/05/13 06:54:13;;;;;;;12.35;4.25;;;;;;;-144.47;46.73;53169.91;5030266;28;20021;-65
2022/05/13 06:56:41;;;;;;;10.02;3.58;;;;;;;-144.47;46.55;53175.88;5030800;28;20029;-64
2022/05/13 06:59:08;;;;;;;10.05;3.60;;;;;;;-144.47;46.09;53163.97;5030392;28;20025;-65
2022/05/13 07:01:34;;;;;;;7.97;3.20;;;;;;;-144.47;45.58;53183.81;5028797;28;20686;-65
2022/05/13 07:03:59;;;;;;;21.52;7.78;;;;;;;-144.47;45.53;53201.69;5027021;28;20314;-64
2022/05/13 07:06:24;;;;;;;11.20;4.45;;;;;;;-144.47;45.11;53158.00;5028672;28;20033;-66
2022/05/13 07:08:50;;;;;;;9.80;4.65;;;;;;;-144.47;45.22;53201.69;5033169;28;20777;-65
2022/05/13 07:11:19;;;;;;;22.73;4.25;;;;;;;-144.47;45.18;53181.84;5038956;28;20039;-64
2022/05/13 07:13:44;;;;;;;;;;;;;;;-144.47;45.29;53173.88;5030854;28;20116;-63
2022/05/13 07:16:11;;;;;;;9.73;3.58;;;;;;;-144.47;44.32;53163.97;5033993;28;19917;-65
2022/05/13 07:18:38;;;;;;;11.88;3.28;;;;;;;-144.47;44.02;53205.66;5032441;28;20069;-66
2022/05/13 07:21:04;;;;;;;11.50;3.53;;;;;;;-144.47;44.01;53175.88;5029500;28;20120;-65
2022/05/13 07:23:32;;;;;;;10.45;3.78;;;;;;;-144.47;43.86;53128.22;5038710;28;21380;-64
2022/05/13 07:25:58;;;;;;;11.23;3.30;;;;;;;-144.47;44.07;53193.75;5029309;28;21196;-64
2022/05/13 07:28:26;;;;;;;19.50;3.40;;;;;;;-144.47;43.36;53142.09;5031573;28;20274;-64
2022/05/13 07:30:51;;;;;;;9.70;3.85;;;;;;;-144.47;44.06;53142.09;5035142;28;20029;-64
2022/05/13 07:33:17;;;;;;;7.50;3.35;;;;;;;-144.47;43.67;53150.06;5032804;28;20033;-67
2022/05/13 07:35:43;;;;;;;13.00;3.15;;;;;;;-144.47;42.82;53108.34;5031879;28;20018;-63
2022/05/13 07:38:08;;;;;;;13.48;3.75;;;;;;;-144.47;41.23;53112.31;5032200;28;20025;-64
2022/05/13 07:43:18;;;;;;;18.98;3.20;;;;;;;-144.47;40.02;53130.19;5033695;28;20064;-64
2022/05/13 07:45:43;;;;;;;11.75;3.10;;;;;;;-144.47;39.80;53120.25;5031779;28;20049;-64
2022/05/13 07:48:09;;;;;;;10.38;3.88;;;;;;;-144.47;39.80;53183.81;5029532;28;20484;-63
2022/05/13 07:50:35;;;;;;;9.27;3.13;;;;;;;-144.47;39.35;53118.28;5031032;28;20044;-67
2022/05/13 07:53:00;;;;;;;17.08;3.30;;;;;;;-144.47;39.37;53128.22;5029490;28;20029;-66
2022/05/13 07:55:26;;;;;;;11.18;3.05;;;;;;;-144.47;39.21;53152.03;5035665;28;20662;-62
2022/05/13 07:57:52;;;;;;;10.95;3.35;;;;;;;-144.47;39.30;53128.22;5030519;28;20441;-67
2022/05/13 08:00:26;;;;;;;13.80;3.05;;;;;;;-144.47;39.31;53142.09;5026473;28;20053;-64
2022/05/13 08:02:53;;;;;;;10.90;2.63;;;;;;;-144.47;39.61;53156.00;5035014;28;20026;-65
2022/05/13 08:05:19;;;;;;;15.23;2.90;;;;;;;-144.47;39.50;53160.00;5011426;28;20026;-64
2022/05/13 08:07:44;;;;;;;10.65;3.00;;;;;;;-144.47;39.25;53122.25;5025324;28;20094;-66
2022/05/13 08:10:10;;;;;;;8.88;2.83;;;;;;;-144.47;39.29;53146.09;5026358;28;20052;-61
2022/05/13 08:12:35;;;;;;;10.68;2.70;;;;;;;-144.47;39.26;53110.31;5029160;28;20053;-66
2022/05/13 08:15:01;;;;;;;7.07;2.63;;;;;;;-144.47;39.51;53126.22;5028696;28;20350;-65
2022/05/13 08:17:26;;;;;;;15.95;3.47;;;;;;;-144.47;39.14;53114.31;5022867;28;20034;-64
2022/05/13 08:19:51;;;;;;;11.35;3.00;;;;;;;-144.47;39.49;53124.22;5027853;28;20029;-65
2022/05/13 08:22:17;;;;;;;7.65;3.63;;;;;;;-144.47;39.34;53118.28;5025550;28;20044;-65
2022/05/13 08:24:42;;;;;;;11.00;3.17;;;;;;;-144.47;39.26;53110.31;5025931;28;20025;-64
2022/05/13 08:27:07;;;;;;;10.43;2.50;;;;;;;-144.47;39.42;53112.31;5027717;28;20017;-67
2022/05/13 08:29:33;;;;;;;9.55;2.97;;;;;;;-144.47;39.36;53136.16;5029251;28;20037;-65
2022/05/13 08:31:58;;;;;;;10.82;2.90;;;;;;;-144.47;39.47;53136.16;5031039;28;20029;-64
2022/05/13 08:34:24;;;;;;;22.67;3.10;;;;;;;-144.47;39.73;53138.13;5028910;28;20025;-65
2022/05/13 08:36:50;;;;;;;12.65;3.30;;;;;;;-144.47;39.85;53114.31;5031056;28;20044;-63
2022/05/13 08:39:16;;;;;;;9.93;2.80;;;;;;;-144.47;39.99;53122.25;5032391;28;20033;-63
2022/05/13 08:41:59;;;;;;;15.05;3.22;;;;;;;-144.47;39.14;53126.22;5031759;28;20530;-63
2022/05/13 08:44:25;;;;;;;10.00;2.78;;;;;;;-144.47;38.74;53102.38;5029953;28;20037;-64
2022/05/13 08:47:07;;;;;;;12.48;2.72;;;;;;;-144.47;37.75;53142.09;5028918;28;20069;-63
2022/05/13 08:49:35;;;;;;;8.45;2.90;;;;;;;-144.47;37.10;53138.13;5028329;28;20041;-63
2022/05/13 08:53:06;;;;;;;11.20;2.83;;;;;;;-144.47;37.78;53144.09;5032866;28;20025;-61
2022/05/13 08:54:58;;;;;;;11.02;2.92;;;;;;;-144.47;38.25;53142.09;5028596;28;20043;-62
2022/05/13 08:57:27;;;;;;;17.95;3.10;;;;;;;-144.47;38.61;53150.06;5029586;28;20044;-65
2022/05/13 09:00:00;;;;;;;14.52;2.65;;;;;;;-144.47;38.44;53150.06;5027885;28;20029;-65
2022/05/13 09:02:34;;;;;;;10.27;2.75;;;;;;;-144.47;38.17;53118.28;5028143;28;20033;-65
2022/05/13 09:05:27;;;;;;;15.63;3.35;;;;;;;-144.47;38.73;53126.22;5028143;28;20171;-62
2022/05/13 09:07:54;;;;;;;7.53;2.50;;;;;;;-144.47;38.15;53112.31;5027113;28;20052;-65
2022/05/13 09:10:19;;;;;;;11.68;2.75;;;;;;;-144.47;37.76;53146.09;5028867;28;20033;-65
2022/05/13 09:13:12;;;;;;;12.07;2.33;;;;;;;-144.47;38.23;53165.94;5028657;28;20625;-63
2022/05/13 09:15:50;;;;;;;13.35;2.28;;;;;;;-144.47;38.38;53120.25;5027280;28;20025;-65
2022/05/13 09:18:22;;;;;;;12.18;2.97;;;;;;;-144.47;37.92;53110.31;5026487;28;20044;-63
2022/05/13 09:20:51;;;;;;;22.42;2.50;;;;;;;-144.47;37.56;53167.94;5027831;28;20034;-65
2022/05/13 09:23:18;;;;;;;16.80;2.92;;;;;;;-144.47;37.95;53114.31;5032092;28;20507;-63
2022/05/13 09:26:03;;;;;;;9.98;2.88;;;;;;;-144.47;37.85;53138.13;5031251;28;20112;-66
2022/05/13 09:28:30;;;;;;;5.90;2.10;;;;;;;-144.47;37.41;53136.16;5034617;28;20087;-66
2022/05/13 09:31:16;;;;;;;10.40;3.83;;;;;;;-144.47;37.20;53126.22;5031780;28;20029;-63
2022/05/13 09:33:46;;;;;;;11.73;2.55;;;;;;;-144.47;37.37;53138.13;5031715;28;20440;-67
2022/05/13 09:36:26;;;;;;;6.50;2.80;;;;;;;-144.47;37.60;53094.44;5027278;28;20601;-64
2022/05/13 09:38:52;;;;;;;10.90;2.30;;;;;;;-144.47;37.65;53096.41;5026163;28;20087;-66
2022/05/13 09:41:38;;;;;;;7.85;2.80;;;;;;;-144.47;38.07;53134.16;5032978;28;20127;-64
2022/05/13 09:44:10;;;;;;;9.27;2.80;;;;;;;-144.47;38.15;53144.09;5033249;28;20043;-63
2022/05/13 09:46:44;;;;;;;11.80;2.92;;;;;;;-144.47;37.55;53124.22;5029646;28;20041;-64
2022/05/13 09:49:33;;;;;;;12.60;2.47;;;;;;;-144.47;37.51;53106.34;5033306;28;20388;-61
2022/05/13 09:52:12;;;;;;;11.25;2.60;;;;;;;-144.47;37.55;53120.25;5031101;28;20033;-65
2022/05/13 09:54:43;;;;;;;14.68;2.83;;;;;;;-144.47;36.54;53122.25;5029565;28;20033;-65
2022/05/13 09:57:14;;;;;;;13.13;2.63;;;;;;;-144.47;36.53;53126.22;5035758;28;20029;-63
2022/05/13 09:59:52;;;;;;;11.27;1.98;;;;;;;-144.47;35.51;53114.31;5034943;28;20026;-64
2022/05/13 10:02:29;;;;;;;13.13;2.30;;;;;;;-144.47;35.94;53098.41;5031146;28;20029;-59
2022/05/13 10:05:14;;;;;;;11.40;1.83;;;;;;;-144.47;35.49;53154.03;5033335;28;20033;-64
2022/05/13 10:07:55;;;;;;;25.85;2.33;;;;;;;-144.47;33.79;53158.00;5032720;28;20026;-67
2022/05/13 10:16:03;;;;;;;;;;;;;;;-144.47;33.18;53112.31;5039934;28;20056;-64
2022/05/13 10:18:31;;;;;;;7.15;1.85;;;;;;;-144.47;33.89;53136.16;5029570;28;20035;-66
2022/05/13 10:21:02;;;;;;;6.18;1.88;;;;;;;-144.47;34.22;53148.06;5031026;28;20441;-66
2022/05/13 10:23:36;;;;;;;13.02;1.73;;;;;;;-144.47;34.52;53108.34;5038238;28;20029;-64
2022/05/13 10:26:04;;;;;;;6.75;1.92;;;;;;;-144.47;35.05;53106.34;5028216;28;20026;-63
2022/05/13 10:28:39;;;;;;;9.48;2.15;;;;;;;-144.47;35.51;53122.25;5029626;28;20041;-61
2022/05/13 10:31:21;;;;;;;13.23;2.17;;;;;;;-144.47;35.68;53118.28;5029607;28;20042;-64
2022/05/13 10:34:08;;;;;;;6.28;2.17;;;;;;;-144.47;35.56;53108.34;5029340;28;20096;-63
2022/05/13 10:36:51;;;;;;;25.05;2.75;;;;;;;-144.47;35.76;53122.25;5027054;28;20117;-64
2022/05/13 10:39:25;;;;;;;12.57;2.03;;;;;;;-144.47;35.48;53148.06;5029583;28;20021;-65
2022/05/13 10:41:59;;;;;;;6.05;1.83;;;;;;;-144.47;34.99;53110.31;5035542;28;20036;-65
2022/05/13 10:44:24;;;;;;;6.80;1.98;;;;;;;-144.47;35.08;53118.28;5034758;28;20026;-64
2022/05/13 10:47:02;;;;;;;5.75;2.08;;;;;;;-144.47;34.44;53120.25;5026327;28;20033;-66
2022/05/13 10:49:34;;;;;;;7.63;2.17;;;;;;;-144.47;33.97;53110.31;5020859;28;20108;-64
2022/05/13 10:52:13;;;;;;;5.60;1.90;;;;;;;-144.47;33.94;53094.44;5029877;28;20079;-65
2022/05/13 10:54:51;;;;;;;18.63;2.25;;;;;;;-144.47;33.33;53082.53;5030795;28;20080;-64
2022/05/13 10:57:31;;;;;;;4.32;1.83;;;;;;;-144.47;33.86;53122.25;5029682;28;20088;-62
2022/05/13 11:00:18;;;;;;;10.88;2.15;;;;;;;-144.47;35.02;53136.16;5018818;28;20033;-64
2022/05/13 11:03:14;;;;;;;10.93;2.25;;;;;;;-144.47;35.35;53118.28;5040939;28;20586;-65
2022/05/13 11:05:52;;;;;;;9.35;2.33;;;;;;;-144.47;35.65;53130.19;5026559;28;20033;-65
2022/05/13 11:08:25;;;;;;;9.50;3.03;;;;;;;-144.47;35.31;53138.13;5026138;28;20034;-66
2022/05/13 11:11:16;;;;;;;10.07;2.00;;;;;;;-144.47;34.87;53154.03;5029455;28;20037;-66
2022/05/13 11:13:55;;;;;;;9.52;1.85;;;;;;;-144.47;34.02;53118.28;5024131;28;20045;-66
2022/05/13 11:16:49;;;;;;;10.15;1.80;;;;;;;-144.47;33.42;53106.34;5061297;23;20053;-69
2022/05/13 11:19:26;;;;;;;11.80;2.17;;;;;;;-144.47;33.46;53118.28;5036827;28;20578;-69
2022/05/13 11:22:05;;;;;;;10.77;1.80;;;;;;;-144.47;32.66;53160.00;5028421;28;20116;-68
2022/05/13 11:27:43;;;;;;;15.15;2.00;;;;;;;-144.47;34.57;53076.56;5029612;28;20029;-66
2022/05/13 11:30:13;;;;;;;10.23;2.25;;;;;;;-144.47;35.04;53098.41;5030685;28;20049;-67
2022/05/13 11:32:56;;;;;;;10.75;2.45;;;;;;;-144.47;33.95;53122.25;5035370;28;20029;-69
2022/05/13 11:35:56;;;;;;;9.02;1.88;;;;;;;-144.47;33.62;53118.28;5029668;28;20037;-66
2022/05/13 11:38:24;;;;;;;9.10;1.75;;;;;;;-144.47;33.47;53100.41;5018178;28;20025;-70
2022/05/13 11:40:56;;;;;;;11.07;1.90;;;;;;;-144.47;34.94;53100.41;5029778;28;20516;-69
2022/05/13 11:43:43;;;;;;;13.88;2.60;;;;;;;-144.47;35.93;53112.31;5029647;28;20040;-66
2022/05/13 11:46:21;;;;;;;11.13;2.80;;;;;;;-144.47;36.03;53118.28;5028571;28;20611;-70
2022/05/13 11:48:49;;;;;;;15.27;2.57;;;;;;;-144.47;35.56;53086.50;5029353;28;20087;-69